WIDD/BTH METAR and TAF weather

Enter ICAO airport designator
Station Type Date Time Source
WIDD METAR 2022/05/24 12:30 UTC NOAA

WIDD 241230Z 10003KT 9999 FEW014 29/25 Q1011 NOSIG


Station Type Date Time Source
WIDD Decoded METAR 2022/05/24 12:30 UTC NOAA

Station name not available
May 24, 2022 - 08:30 AM EDT / 2022.05.24 1230 UTC
Wind: from the E (100 degrees) at 3 MPH (3 KT):0
Visibility: greater than 7 mile(s):0
Sky conditions: mostly clear
Temperature: 84 F (29 C)
Dew Point: 77 F (25 C)
Relative Humidity: 79%
Pressure (altimeter): 29.85 in. Hg (1011 hPa)
ob: WIDD 241230Z 10003KT 9999 FEW014 29/25 Q1011 NOSIG
cycle: 12

Station Type Date Time Source
WIDD TAF 2022/05/24 12:00 UTC NOAA

TAF WIDD 241100Z 2412/2512 11004KT 9000 FEW014 ? PROB30
TEMPO 2415/2417 5000 -TSRA FEW013CB

Example: see airport list